createdAt,value
2023-03-15T00:00:54.174Z,5
2023-03-15T00:01:54.139Z,5
2023-03-15T00:02:54.159Z,5
2023-03-15T00:03:54.185Z,5
2023-03-15T00:04:54.138Z,5.1
2023-03-15T00:05:54.170Z,5.2
2023-03-15T00:06:54.169Z,5.2
2023-03-15T00:08:54.145Z,5.3
2023-03-15T00:09:54.175Z,5.2
2023-03-15T00:10:54.136Z,5.2
2023-03-15T00:11:54.135Z,5.2
2023-03-15T00:12:54.135Z,5.2
2023-03-15T00:13:54.148Z,5.2
2023-03-15T00:14:54.150Z,5.2
2023-03-15T00:15:54.258Z,5.1
2023-03-15T00:16:54.156Z,5.1
2023-03-15T00:17:54.182Z,5.1
2023-03-15T00:18:54.140Z,5.2
2023-03-15T00:19:54.132Z,5.2
2023-03-15T00:20:54.133Z,5.1
2023-03-15T00:21:54.160Z,5.1
2023-03-15T00:22:54.160Z,5.1
2023-03-15T00:24:54.142Z,5.1
2023-03-15T00:25:54.174Z,5.1
2023-03-15T00:26:54.145Z,5.1
2023-03-15T00:27:54.144Z,5.1
2023-03-15T00:28:54.146Z,5.1
2023-03-15T00:30:54.162Z,5.1
2023-03-15T00:31:54.173Z,5.1
2023-03-15T00:32:54.180Z,5.1
2023-03-15T00:33:54.139Z,5.1
2023-03-15T00:34:54.254Z,5.1
2023-03-15T00:35:54.256Z,5.1
2023-03-15T00:36:54.153Z,5.1
2023-03-15T00:37:54.142Z,5.1
2023-03-15T00:38:54.152Z,5.1
2023-03-15T00:39:54.153Z,5.1
2023-03-15T00:40:54.152Z,5.1
2023-03-15T00:41:54.156Z,5.1
2023-03-15T00:42:54.142Z,5
2023-03-15T00:43:54.153Z,4.9
2023-03-15T00:44:54.149Z,4.9
2023-03-15T00:45:54.145Z,4.9
2023-03-15T00:46:54.196Z,4.9
2023-03-15T00:47:54.171Z,4.9
2023-03-15T00:48:54.139Z,4.8
2023-03-15T00:49:54.139Z,4.7
2023-03-15T00:51:54.134Z,4.7
2023-03-15T00:52:54.152Z,4.6
2023-03-15T00:53:54.152Z,4.5
2023-03-15T00:54:54.144Z,4.6
2023-03-15T00:55:54.145Z,4.6
2023-03-15T00:56:54.166Z,4.6
2023-03-15T00:57:54.157Z,4.7
2023-03-15T00:58:54.194Z,4.6
2023-03-15T00:59:54.164Z,4.6
2023-03-15T01:00:54.148Z,4.7
2023-03-15T01:01:54.275Z,4.6
2023-03-15T01:02:54.268Z,4.7
2023-03-15T01:03:54.190Z,4.6
2023-03-15T01:04:54.158Z,4.7
2023-03-15T01:05:54.138Z,4.7
2023-03-15T01:06:54.140Z,4.7
2023-03-15T01:07:48.629Z,4.7
2023-03-15T01:08:54.148Z,4.7
2023-03-15T01:10:54.143Z,4.6
2023-03-15T01:11:54.172Z,4.6
2023-03-15T01:12:54.166Z,4.6
2023-03-15T01:13:54.168Z,4.6
2023-03-15T01:14:54.154Z,4.5
2023-03-15T01:15:54.202Z,4.5
2023-03-15T01:16:54.148Z,4.6
2023-03-15T01:17:54.157Z,4.5
2023-03-15T01:18:54.190Z,4.6
2023-03-15T01:19:54.144Z,4.6
2023-03-15T01:20:54.147Z,4.6
2023-03-15T01:21:54.148Z,4.5
2023-03-15T01:22:54.174Z,4.5
2023-03-15T01:23:54.230Z,4.5
2023-03-15T01:24:54.157Z,4.6
2023-03-15T01:25:54.181Z,4.6
2023-03-15T01:26:54.150Z,4.6
2023-03-15T01:27:54.141Z,4.6
2023-03-15T01:28:54.163Z,4.6
2023-03-15T01:29:54.151Z,4.6
2023-03-15T01:31:54.292Z,4.6
2023-03-15T01:32:54.253Z,4.5
2023-03-15T01:33:54.190Z,4.5
2023-03-15T01:34:54.175Z,4.6
2023-03-15T01:35:54.174Z,4.6
2023-03-15T01:36:54.165Z,4.5
2023-03-15T01:37:54.174Z,4.5
2023-03-15T01:38:54.149Z,4.5
2023-03-15T01:39:54.160Z,4.4
2023-03-15T01:40:54.173Z,4.4
2023-03-15T01:41:54.186Z,4.4
2023-03-15T01:42:54.175Z,4.4
2023-03-15T01:43:54.174Z,4.4
2023-03-15T01:44:54.157Z,4.4
2023-03-15T01:45:54.174Z,4.4
2023-03-15T01:46:54.192Z,4.3
2023-03-15T01:47:54.183Z,4.3
2023-03-15T01:48:54.159Z,4.3
2023-03-15T01:49:54.154Z,4.3
2023-03-15T01:50:54.173Z,4.4
2023-03-15T01:51:54.214Z,4.3
2023-03-15T01:52:54.159Z,4.3
2023-03-15T01:54:54.156Z,4.3
2023-03-15T01:55:54.152Z,4.3
2023-03-15T01:56:54.154Z,4.4
2023-03-15T01:57:54.158Z,4.3
2023-03-15T01:58:54.171Z,4.3
2023-03-15T01:59:54.169Z,4.3
2023-03-15T02:00:54.197Z,4.3
2023-03-15T02:01:54.172Z,4.2
2023-03-15T02:02:54.166Z,4.2
2023-03-15T02:03:54.169Z,4.2
2023-03-15T02:04:54.205Z,4.2
2023-03-15T02:05:54.160Z,4.1
2023-03-15T02:06:54.233Z,4.1
2023-03-15T02:07:54.179Z,4.1
2023-03-15T02:08:54.177Z,4.1
2023-03-15T02:09:54.165Z,4.1
2023-03-15T02:10:54.166Z,4.2
2023-03-15T02:11:54.164Z,4.2
2023-03-15T02:13:54.163Z,4.2
2023-03-15T02:14:54.174Z,4.2
2023-03-15T02:15:54.163Z,4.2
2023-03-15T02:16:54.164Z,4.2
2023-03-15T02:17:54.181Z,4.3
2023-03-15T02:18:54.156Z,4.2
2023-03-15T02:19:54.164Z,4.2
2023-03-15T02:20:54.169Z,4.3
2023-03-15T02:21:54.162Z,4.3
2023-03-15T02:22:54.182Z,4.3
2023-03-15T02:23:54.162Z,4.3
2023-03-15T02:24:54.158Z,4.2
2023-03-15T02:25:54.163Z,4.2
2023-03-15T02:26:54.195Z,4.2
2023-03-15T02:27:54.157Z,4.2
2023-03-15T02:28:54.180Z,4.2
2023-03-15T02:29:54.184Z,4.2
2023-03-15T02:30:54.156Z,4.2
2023-03-15T02:31:54.192Z,4.3
2023-03-15T02:32:54.249Z,4.3
2023-03-15T02:34:54.198Z,4.4
2023-03-15T02:35:54.262Z,4.2
2023-03-15T02:36:54.205Z,4.3
2023-03-15T02:37:54.182Z,4.3
2023-03-15T02:38:54.186Z,4.3
2023-03-15T02:39:54.172Z,4.3
2023-03-15T02:40:54.182Z,4.3
2023-03-15T02:41:54.169Z,4.3
2023-03-15T02:42:54.155Z,4.3
2023-03-15T02:43:54.159Z,4.2
2023-03-15T02:44:54.173Z,4.2
2023-03-15T02:45:54.192Z,4.3
2023-03-15T02:46:54.180Z,4.2
2023-03-15T02:47:54.177Z,4.3
2023-03-15T02:48:54.202Z,4.3
2023-03-15T02:49:54.185Z,4.3
2023-03-15T02:50:54.173Z,4.2
2023-03-15T02:51:54.221Z,4.1
2023-03-15T02:52:54.188Z,4.2
2023-03-15T02:53:54.204Z,4.2
2023-03-15T02:55:54.186Z,4.1
2023-03-15T02:56:54.183Z,4.1
2023-03-15T02:57:54.185Z,4.1
2023-03-15T02:58:54.550Z,4.1
2023-03-15T02:59:54.170Z,4.1
2023-03-15T03:00:54.304Z,4.1
2023-03-15T03:01:54.176Z,4.1
2023-03-15T03:02:54.168Z,4.1
2023-03-15T03:03:54.179Z,4.1
2023-03-15T03:04:54.178Z,4
2023-03-15T03:05:54.172Z,4
2023-03-15T03:06:54.202Z,4
2023-03-15T03:07:54.192Z,4.1
2023-03-15T03:08:54.181Z,4
2023-03-15T03:09:54.178Z,4.1
2023-03-15T03:10:54.173Z,4.2
2023-03-15T03:11:54.164Z,4.1
2023-03-15T03:12:54.177Z,4.1
2023-03-15T03:13:54.197Z,4.1
2023-03-15T03:14:54.181Z,4.2
2023-03-15T03:16:54.270Z,4.2
2023-03-15T03:17:54.197Z,4.2
2023-03-15T03:18:54.189Z,4.2
2023-03-15T03:19:54.189Z,4.2
2023-03-15T03:20:54.190Z,4.2
2023-03-15T03:21:54.216Z,4.2
2023-03-15T03:22:54.194Z,4.2
2023-03-15T03:23:54.189Z,4.2
2023-03-15T03:24:54.175Z,4.2
2023-03-15T03:25:54.197Z,4.1
2023-03-15T03:27:54.171Z,4.1
2023-03-15T03:28:54.165Z,4.2
2023-03-15T03:29:54.175Z,4.2
2023-03-15T03:30:54.286Z,4.2
2023-03-15T03:31:54.172Z,4.2
2023-03-15T03:32:54.263Z,4.1
2023-03-15T03:33:54.182Z,4.1
2023-03-15T03:34:54.188Z,4.1
2023-03-15T03:35:54.281Z,4.1
2023-03-15T03:36:54.182Z,4
2023-03-15T03:37:54.197Z,4
2023-03-15T03:38:54.189Z,4
2023-03-15T03:39:54.170Z,4
2023-03-15T03:40:54.952Z,4
2023-03-15T03:41:54.177Z,4
2023-03-15T03:42:54.175Z,3.9
2023-03-15T03:43:54.174Z,4
2023-03-15T03:44:54.173Z,4
2023-03-15T03:45:54.188Z,4
2023-03-15T03:46:54.175Z,4
2023-03-15T03:48:54.175Z,4
2023-03-15T03:49:54.259Z,4
2023-03-15T03:50:54.169Z,4
2023-03-15T03:51:54.182Z,4
2023-03-15T03:52:54.190Z,4
2023-03-15T03:53:54.197Z,4.1
2023-03-15T03:54:54.179Z,4.1
2023-03-15T03:55:54.174Z,3.9
2023-03-15T03:56:54.172Z,4
2023-03-15T03:57:54.192Z,3.9
2023-03-15T03:58:54.173Z,3.9
2023-03-15T03:59:54.192Z,3.9
2023-03-15T04:00:54.317Z,3.8
2023-03-15T04:01:54.195Z,3.9
2023-03-15T04:02:54.378Z,3.9
2023-03-15T04:03:54.204Z,3.9
2023-03-15T04:04:54.254Z,3.9
2023-03-15T04:05:54.188Z,3.9
2023-03-15T04:06:54.181Z,4
2023-03-15T04:07:54.177Z,3.9
2023-03-15T04:08:54.241Z,3.9
2023-03-15T04:09:54.192Z,3.9
2023-03-15T04:10:54.191Z,3.9
2023-03-15T04:11:54.178Z,3.8
2023-03-15T04:12:54.190Z,3.9
2023-03-15T04:13:54.182Z,3.9
2023-03-15T04:14:54.190Z,3.9
2023-03-15T04:15:54.234Z,3.9
2023-03-15T04:16:54.309Z,3.9
2023-03-15T04:17:54.179Z,3.8
2023-03-15T04:18:54.184Z,3.8
2023-03-15T04:19:54.190Z,3.8
2023-03-15T04:20:54.178Z,3.8
2023-03-15T04:21:54.183Z,3.8
2023-03-15T04:22:54.192Z,3.8
2023-03-15T04:23:54.190Z,3.8
2023-03-15T04:24:54.177Z,3.9
2023-03-15T04:25:54.184Z,3.8
2023-03-15T04:26:54.206Z,3.8
2023-03-15T04:27:54.212Z,3.9
2023-03-15T04:28:54.200Z,3.9
2023-03-15T04:30:54.190Z,3.8
2023-03-15T04:31:54.201Z,3.8
2023-03-15T04:32:54.310Z,3.8
2023-03-15T04:33:54.181Z,3.8
2023-03-15T04:34:54.187Z,3.8
2023-03-15T04:35:54.216Z,3.8
2023-03-15T04:36:54.191Z,3.8
2023-03-15T04:37:54.216Z,3.8
2023-03-15T04:38:54.188Z,3.8
2023-03-15T04:39:54.210Z,3.8
2023-03-15T04:40:54.207Z,3.8
2023-03-15T04:41:54.198Z,3.8
2023-03-15T04:42:54.202Z,3.9
2023-03-15T04:43:54.211Z,3.9
2023-03-15T04:44:54.220Z,3.9
2023-03-15T04:45:54.189Z,3.9
2023-03-15T04:46:54.252Z,3.9
2023-03-15T04:47:54.199Z,3.9
2023-03-15T04:48:54.189Z,3.9
2023-03-15T04:49:54.187Z,3.8
2023-03-15T04:51:54.204Z,3.9
2023-03-15T04:52:54.250Z,3.9
2023-03-15T04:53:54.193Z,3.9
2023-03-15T04:54:54.195Z,4
2023-03-15T04:55:54.200Z,3.9
2023-03-15T04:56:54.190Z,3.9
2023-03-15T04:57:54.214Z,3.9
2023-03-15T04:58:54.209Z,3.9
2023-03-15T04:59:54.206Z,3.9
2023-03-15T05:00:54.420Z,3.9
2023-03-15T05:02:54.206Z,3.9
2023-03-15T05:03:54.195Z,3.9
2023-03-15T05:04:54.198Z,4
2023-03-15T05:05:54.192Z,4
2023-03-15T05:06:54.193Z,4
2023-03-15T05:07:54.212Z,3.9
2023-03-15T05:08:54.198Z,4
2023-03-15T05:09:54.216Z,4
2023-03-15T05:10:54.251Z,4
2023-03-15T05:12:54.192Z,4
2023-03-15T05:13:54.207Z,3.9
2023-03-15T05:14:54.487Z,4
2023-03-15T05:15:54.273Z,3.9
2023-03-15T05:16:54.203Z,3.9
2023-03-15T05:17:54.244Z,4
2023-03-15T05:18:54.198Z,4
2023-03-15T05:19:54.199Z,4
2023-03-15T05:20:54.206Z,4
2023-03-15T05:21:54.196Z,4
2023-03-15T05:22:54.191Z,4
2023-03-15T05:23:54.201Z,4
2023-03-15T05:24:54.225Z,4
2023-03-15T05:25:54.200Z,4
2023-03-15T05:26:54.252Z,4
2023-03-15T05:27:54.224Z,4
2023-03-15T05:28:54.195Z,4
2023-03-15T05:29:54.203Z,4
2023-03-15T05:30:54.212Z,4
2023-03-15T05:31:54.272Z,4
2023-03-15T05:32:54.317Z,4
2023-03-15T05:33:54.310Z,4
2023-03-15T05:34:54.207Z,4.1
2023-03-15T05:35:54.351Z,4
2023-03-15T05:36:54.200Z,4
2023-03-15T05:37:54.197Z,4
2023-03-15T05:38:54.203Z,4
2023-03-15T05:39:54.206Z,4
2023-03-15T05:41:54.225Z,4
2023-03-15T05:42:54.197Z,4
2023-03-15T05:43:54.197Z,4
2023-03-15T05:44:54.210Z,4
2023-03-15T05:45:54.556Z,4
2023-03-15T05:46:54.206Z,4
2023-03-15T05:47:54.203Z,4
2023-03-15T05:48:54.205Z,4.1
2023-03-15T05:49:54.210Z,4.1
2023-03-15T05:50:54.231Z,4.1
2023-03-15T05:51:54.209Z,4
2023-03-15T05:52:54.195Z,4
2023-03-15T05:54:54.213Z,4.1
2023-03-15T05:55:54.200Z,4.1
2023-03-15T05:56:54.197Z,4.1
2023-03-15T05:57:54.196Z,4.1
2023-03-15T05:58:54.278Z,4.1
2023-03-15T05:59:55.182Z,4.1
2023-03-15T06:00:54.201Z,4.1
2023-03-15T06:01:54.204Z,4
2023-03-15T06:02:54.224Z,4.1
2023-03-15T06:03:54.266Z,4.1
2023-03-15T06:05:54.204Z,4.2
2023-03-15T06:06:54.195Z,4.1
2023-03-15T06:07:54.200Z,4.1
2023-03-15T06:08:54.205Z,4.1
2023-03-15T06:09:54.200Z,4.2
2023-03-15T06:10:54.205Z,4.1
2023-03-15T06:11:54.205Z,4.2
2023-03-15T06:12:54.238Z,4.2
2023-03-15T06:13:54.220Z,4.2
2023-03-15T06:14:54.218Z,4.2
2023-03-15T06:15:54.242Z,4.1
2023-03-15T06:16:54.308Z,4.1
2023-03-15T06:17:54.220Z,4.1
2023-03-15T06:18:54.210Z,4.2
2023-03-15T06:19:54.217Z,4.2
2023-03-15T06:20:54.227Z,4.2
2023-03-15T06:21:54.242Z,4.2
2023-03-15T06:22:54.219Z,4.2
2023-03-15T06:24:54.206Z,4.2
2023-03-15T06:25:54.209Z,4.2
2023-03-15T06:26:54.204Z,4.1
2023-03-15T06:27:54.209Z,4.1
2023-03-15T06:28:54.206Z,4.1
2023-03-15T06:29:54.199Z,4.2
2023-03-15T06:30:54.289Z,4.2
2023-03-15T06:31:54.225Z,4.2
2023-03-15T06:32:54.306Z,4.2
2023-03-15T06:33:54.234Z,4.2
2023-03-15T06:34:54.232Z,4.1
2023-03-15T06:35:54.244Z,4
2023-03-15T06:37:54.300Z,5.4
2023-03-15T06:38:54.247Z,6.7
2023-03-15T06:39:54.238Z,8.4
2023-03-15T06:40:54.221Z,8.3
2023-03-15T06:41:54.224Z,8
2023-03-15T06:42:54.226Z,7.5
2023-03-15T06:43:54.247Z,7
2023-03-15T06:44:54.211Z,6.7
2023-03-15T06:45:54.310Z,6.4
2023-03-15T06:46:54.222Z,6.1
2023-03-15T06:47:54.212Z,5.9
2023-03-15T06:48:55.139Z,5.7
2023-03-15T06:49:54.926Z,5.6
2023-03-15T06:50:54.242Z,5.4
2023-03-15T06:51:54.288Z,5.2
2023-03-15T06:52:54.212Z,5
2023-03-15T06:53:54.219Z,4.9
2023-03-15T06:54:54.223Z,4.8
2023-03-15T06:55:54.216Z,4.6
2023-03-15T06:56:54.226Z,4.6
2023-03-15T06:57:54.237Z,4.6
2023-03-15T06:58:54.225Z,4.6
2023-03-15T06:59:54.229Z,4.5
2023-03-15T07:00:54.212Z,4.5
2023-03-15T07:01:54.288Z,4.5
2023-03-15T07:02:54.316Z,4.5
2023-03-15T07:03:54.232Z,4.4
2023-03-15T07:04:54.223Z,4.4
2023-03-15T07:05:54.227Z,4.4
2023-03-15T07:06:54.242Z,4.4
2023-03-15T07:08:54.238Z,4.5
2023-03-15T07:09:55.281Z,4.5
2023-03-15T07:10:54.266Z,4.6
2023-03-15T07:11:54.234Z,4.7
2023-03-15T07:12:54.232Z,4.6
2023-03-15T07:13:54.233Z,4.7
2023-03-15T07:14:54.247Z,4.7
2023-03-15T07:15:54.336Z,4.8
2023-03-15T07:16:54.276Z,4.8
2023-03-15T07:17:54.240Z,4.8
2023-03-15T07:18:54.240Z,4.8
2023-03-15T07:19:56.868Z,4.8
2023-03-15T07:20:54.236Z,4.8
2023-03-15T07:21:54.238Z,4.8
2023-03-15T07:22:54.242Z,4.7
2023-03-15T07:23:54.268Z,4.7
2023-03-15T07:24:54.258Z,4.8
2023-03-15T07:25:55.430Z,4.8
2023-03-15T07:27:54.235Z,4.8
2023-03-15T07:28:54.227Z,4.8
2023-03-15T07:29:54.242Z,4.7
2023-03-15T07:30:54.239Z,4.7
2023-03-15T07:31:54.277Z,4.7
2023-03-15T07:32:54.413Z,4.7
2023-03-15T07:33:54.236Z,4.8
2023-03-15T07:34:54.232Z,4.7
2023-03-15T07:35:54.322Z,4.6
2023-03-15T07:36:54.242Z,4.7
2023-03-15T07:37:54.232Z,4.8
2023-03-15T07:38:54.243Z,4.8
2023-03-15T07:39:54.228Z,4.8
2023-03-15T07:40:54.244Z,4.8
2023-03-15T07:41:54.229Z,4.9
2023-03-15T07:42:54.223Z,4.9
2023-03-15T07:43:54.213Z,4.9
2023-03-15T07:44:54.223Z,4.9
2023-03-15T07:45:54.247Z,4.9
2023-03-15T07:46:54.256Z,4.9
2023-03-15T07:49:54.225Z,5
2023-03-15T07:51:54.220Z,5
2023-03-15T07:52:54.244Z,5.1
2023-03-15T07:53:54.220Z,5.3
2023-03-15T07:54:54.242Z,5.5
2023-03-15T07:55:54.223Z,5.5
2023-03-15T07:56:54.239Z,5.6
2023-03-15T07:57:54.235Z,5.7
2023-03-15T07:58:54.228Z,5.7
2023-03-15T07:59:54.233Z,5.6
2023-03-15T08:00:54.227Z,5.6
2023-03-15T08:01:54.285Z,5.5
2023-03-15T08:02:54.287Z,5.5
2023-03-15T08:03:54.227Z,5.5
2023-03-15T08:04:54.237Z,5.5
2023-03-15T08:05:54.241Z,5.6
2023-03-15T08:06:54.231Z,5.6
2023-03-15T08:07:54.263Z,5.7
2023-03-15T08:09:54.225Z,5.8
2023-03-15T08:10:54.226Z,6
2023-03-15T08:11:54.220Z,6.3
2023-03-15T08:12:54.221Z,6.7
2023-03-15T08:13:54.241Z,7
2023-03-15T08:14:54.263Z,7.3
2023-03-15T08:15:54.352Z,7.6
2023-03-15T08:16:54.257Z,7.8
2023-03-15T08:17:54.246Z,8
2023-03-15T08:18:54.229Z,8.3
2023-03-15T08:19:54.227Z,8.4
2023-03-15T08:20:54.231Z,8.5
2023-03-15T08:21:54.239Z,8.5
2023-03-15T08:23:54.223Z,8.2
2023-03-15T08:24:54.242Z,8.2
2023-03-15T08:25:54.233Z,8
2023-03-15T08:26:54.237Z,7.9
2023-03-15T08:27:54.254Z,7.8
2023-03-15T08:28:54.254Z,7.6
2023-03-15T08:29:54.247Z,7.6
2023-03-15T08:30:54.234Z,7.5
2023-03-15T08:31:54.268Z,7.4
2023-03-15T08:32:54.324Z,7.4
2023-03-15T08:33:54.238Z,7.3
2023-03-15T08:34:54.242Z,7
2023-03-15T08:35:54.348Z,6.9
2023-03-15T08:36:54.310Z,6.9
2023-03-15T08:37:54.246Z,6.9
2023-03-15T08:38:54.238Z,6.8
2023-03-15T08:39:54.242Z,6.7
2023-03-15T08:41:54.236Z,6.7
2023-03-15T08:42:54.243Z,6.7
2023-03-15T08:43:54.251Z,6.7
2023-03-15T08:44:54.248Z,6.8
2023-03-15T08:46:01.061Z,6.8
2023-03-15T08:46:54.332Z,6.7
2023-03-15T08:47:54.262Z,6.6
2023-03-15T08:48:48.692Z,6.6
2023-03-15T08:49:54.237Z,6.5
2023-03-15T08:50:54.234Z,6.5
2023-03-15T08:51:54.224Z,6.6
2023-03-15T08:52:54.250Z,6.6
2023-03-15T08:53:54.246Z,6.8
2023-03-15T08:54:54.251Z,7
2023-03-15T08:55:54.241Z,7
2023-03-15T08:56:54.249Z,7.1
2023-03-15T08:57:54.234Z,7.1
2023-03-15T08:58:54.238Z,7
2023-03-15T08:59:54.236Z,7
2023-03-15T09:00:54.236Z,7
2023-03-15T09:02:54.256Z,6.8
2023-03-15T09:03:54.281Z,6.9
2023-03-15T09:04:54.245Z,6.9
2023-03-15T09:05:54.277Z,6.9
2023-03-15T09:06:54.236Z,6.8
2023-03-15T09:07:54.250Z,6.7
2023-03-15T09:08:54.246Z,6.8
2023-03-15T09:09:54.281Z,6.8
2023-03-15T09:10:54.245Z,6.9
2023-03-15T09:11:54.240Z,6.9
2023-03-15T09:12:54.251Z,6.9
2023-03-15T09:13:54.243Z,7
2023-03-15T09:15:54.240Z,7
2023-03-15T09:16:54.302Z,7
2023-03-15T09:17:54.256Z,7
2023-03-15T09:18:54.275Z,7
2023-03-15T09:19:54.247Z,7
2023-03-15T09:20:54.244Z,6.9
2023-03-15T09:21:54.249Z,6.9
2023-03-15T09:23:54.245Z,6.8
2023-03-15T09:24:54.280Z,6.8
2023-03-15T09:25:54.249Z,6.9
2023-03-15T09:26:54.248Z,6.9
2023-03-15T09:27:54.250Z,6.9
2023-03-15T09:28:54.256Z,7
2023-03-15T09:29:54.250Z,7
2023-03-15T09:30:54.307Z,7
2023-03-15T09:31:54.249Z,7.1
2023-03-15T09:32:54.355Z,7.2
2023-03-15T09:33:54.250Z,7.4
2023-03-15T09:34:54.248Z,7.4
2023-03-15T09:35:54.279Z,7.5
2023-03-15T09:36:54.252Z,7.6
2023-03-15T09:37:54.258Z,7.6
2023-03-15T09:38:54.278Z,7.8
2023-03-15T09:39:54.255Z,7.9
2023-03-15T09:40:54.260Z,8.1
2023-03-15T09:42:54.260Z,8.1
2023-03-15T09:43:54.259Z,8
2023-03-15T09:45:54.431Z,8.2
2023-03-15T09:46:54.376Z,8.3
2023-03-15T09:47:54.278Z,8.5
2023-03-15T09:48:54.255Z,8.7
2023-03-15T09:49:54.289Z,8.8
2023-03-15T09:50:54.273Z,8.7
2023-03-15T09:51:54.253Z,8.7
2023-03-15T09:52:54.258Z,8.8
2023-03-15T09:53:54.273Z,9
2023-03-15T09:54:54.300Z,8.9
2023-03-15T09:55:54.264Z,8.7
2023-03-15T09:56:54.279Z,8.6
2023-03-15T09:57:54.281Z,8.5
2023-03-15T09:58:54.297Z,8.5
2023-03-15T09:59:54.280Z,8.6
2023-03-15T10:00:54.289Z,8.5
2023-03-15T10:01:54.430Z,8.6
2023-03-15T10:03:54.329Z,8.4
2023-03-15T10:04:54.276Z,8.4
2023-03-15T10:05:54.302Z,8.4
2023-03-15T10:06:54.282Z,8.4
2023-03-15T10:07:54.278Z,8.3
2023-03-15T10:08:54.278Z,8.3
2023-03-15T10:09:54.277Z,8.3
2023-03-15T10:10:54.274Z,8.4
2023-03-15T10:11:54.286Z,8.4
2023-03-15T10:12:54.274Z,8.4
2023-03-15T10:13:54.286Z,8.1
2023-03-15T10:14:54.285Z,8
2023-03-15T10:15:54.338Z,8.1
2023-03-15T10:16:54.287Z,8
2023-03-15T10:17:54.286Z,7.9
2023-03-15T10:18:54.296Z,7.8
2023-03-15T10:19:54.276Z,7.9
2023-03-15T10:20:54.275Z,8
2023-03-15T10:21:54.310Z,8.1
2023-03-15T10:22:54.282Z,8.3
2023-03-15T10:24:54.306Z,8.6
2023-03-15T10:25:54.387Z,8.6
2023-03-15T10:26:54.284Z,8.8
2023-03-15T10:27:54.303Z,8.8
2023-03-15T10:28:54.291Z,8.9
2023-03-15T10:29:54.286Z,9
2023-03-15T10:30:54.333Z,9.1
2023-03-15T10:31:54.340Z,9.2
2023-03-15T10:32:54.352Z,9.4
2023-03-15T10:33:54.285Z,9.3
2023-03-15T10:34:54.300Z,9.3
2023-03-15T10:36:04.296Z,9.4
2023-03-15T10:36:54.516Z,9.4
2023-03-15T10:37:54.295Z,9.5
2023-03-15T10:38:54.290Z,9.6
2023-03-15T10:39:54.279Z,9.6
2023-03-15T10:40:54.282Z,9.6
2023-03-15T10:41:54.284Z,9.5
2023-03-15T10:42:54.286Z,9.3
2023-03-15T10:43:54.305Z,9.3
2023-03-15T10:44:54.284Z,9.2
2023-03-15T10:45:54.311Z,9.1
2023-03-15T10:46:54.323Z,9.1
2023-03-15T10:48:00.423Z,9.1
2023-03-15T10:48:54.286Z,9.1
2023-03-15T10:49:54.287Z,9.1
2023-03-15T10:50:54.290Z,9.1
2023-03-15T10:51:54.287Z,9.1
2023-03-15T10:52:54.276Z,9.1
2023-03-15T10:53:54.286Z,9
2023-03-15T10:54:58.701Z,8.9
2023-03-15T10:55:54.287Z,8.9
2023-03-15T10:56:54.289Z,8.8
2023-03-15T10:57:54.290Z,8.6
2023-03-15T10:59:11.088Z,8.3
2023-03-15T10:59:54.288Z,8.3
2023-03-15T11:00:54.289Z,8.3
2023-03-15T11:01:54.377Z,8.4
2023-03-15T11:02:54.392Z,8.6
2023-03-15T11:03:54.286Z,8.6
2023-03-15T11:04:54.341Z,8.7
2023-03-15T11:06:54.274Z,8.7
2023-03-15T11:07:54.329Z,8.6
2023-03-15T11:08:54.294Z,8.6
2023-03-15T11:09:54.283Z,8.6
2023-03-15T11:10:54.279Z,8.6
2023-03-15T11:11:54.286Z,8.4
2023-03-15T11:12:54.287Z,8.4
2023-03-15T11:13:54.280Z,8.4
2023-03-15T11:14:54.268Z,8.4
2023-03-15T11:15:54.302Z,8.3
2023-03-15T11:17:54.262Z,8.3
2023-03-15T11:18:54.279Z,8.3
2023-03-15T11:19:54.290Z,8.2
2023-03-15T11:20:54.279Z,8.2
2023-03-15T11:21:54.272Z,8.1
2023-03-15T11:22:54.273Z,8.1
2023-03-15T11:23:54.312Z,8.1
2023-03-15T11:24:54.348Z,8.1
2023-03-15T11:25:54.279Z,8
2023-03-15T11:26:54.277Z,8
2023-03-15T11:27:54.277Z,8
2023-03-15T11:28:54.266Z,8.1
2023-03-15T11:29:54.273Z,8
2023-03-15T11:30:54.278Z,7.9
2023-03-15T11:31:54.410Z,8
2023-03-15T11:32:54.318Z,8.1
2023-03-15T11:33:54.274Z,8.1
2023-03-15T11:34:54.275Z,8.1
2023-03-15T11:35:54.301Z,8.2
2023-03-15T11:37:07.271Z,8.2
2023-03-15T11:37:58.565Z,8.2
2023-03-15T11:38:54.313Z,8.3
2023-03-15T11:40:54.286Z,8.4
2023-03-15T11:41:54.342Z,8.3
2023-03-15T11:42:54.274Z,8.4
2023-03-15T11:43:54.303Z,8.4
2023-03-15T11:44:54.288Z,8.4
2023-03-15T11:45:54.326Z,8.4
2023-03-15T11:46:54.281Z,8.5
2023-03-15T11:47:54.306Z,8.5
2023-03-15T11:48:54.285Z,8.5
2023-03-15T11:49:54.290Z,8.5
2023-03-15T11:50:54.288Z,8.5
2023-03-15T11:51:54.302Z,8.5
2023-03-15T11:52:54.294Z,8.6
2023-03-15T11:53:54.306Z,8.6
2023-03-15T11:54:54.283Z,8.5
2023-03-15T11:55:54.316Z,8.4
2023-03-15T11:56:54.289Z,8.4
2023-03-15T11:57:54.312Z,8.4
2023-03-15T11:59:54.350Z,8.6
2023-03-15T12:00:54.290Z,8.7
2023-03-15T12:01:54.373Z,8.7
2023-03-15T12:02:54.360Z,8.8
2023-03-15T12:03:54.304Z,8.8
2023-03-15T12:04:54.292Z,8.8
2023-03-15T12:05:54.292Z,8.8
2023-03-15T12:06:54.304Z,8.8
2023-03-15T12:07:54.293Z,8.7
2023-03-15T12:08:54.290Z,8.6
2023-03-15T12:09:54.310Z,8.4
2023-03-15T12:10:54.318Z,8.5
2023-03-15T12:11:54.287Z,8.4
2023-03-15T12:12:54.289Z,8.5
2023-03-15T12:13:54.297Z,8.5
2023-03-15T12:14:54.292Z,8.4
2023-03-15T12:15:54.298Z,8.4
2023-03-15T12:16:54.425Z,8.3
2023-03-15T12:17:54.300Z,8.3
2023-03-15T12:18:54.313Z,8.4
2023-03-15T12:20:54.305Z,8.4
2023-03-15T12:21:54.301Z,8.4
2023-03-15T12:22:54.670Z,8.4
2023-03-15T12:23:54.299Z,8.4
2023-03-15T12:24:54.327Z,8.4
2023-03-15T12:25:55.492Z,8.5
2023-03-15T12:26:54.300Z,8.4
2023-03-15T12:27:54.302Z,8.4
2023-03-15T12:28:54.324Z,8.5
2023-03-15T12:29:54.316Z,8.3
2023-03-15T12:30:54.335Z,8.3
2023-03-15T12:31:54.297Z,8.3
2023-03-15T12:32:54.340Z,8.4
2023-03-15T12:33:54.301Z,8.4
2023-03-15T12:34:54.313Z,8.4
2023-03-15T12:36:54.303Z,8.5
2023-03-15T12:37:54.310Z,8.5
2023-03-15T12:38:54.301Z,8.6
2023-03-15T12:39:54.293Z,8.7
2023-03-15T12:41:54.292Z,8.8
2023-03-15T12:42:54.298Z,9.6
2023-03-15T12:43:54.310Z,10.5
2023-03-15T12:44:54.330Z,10.7
2023-03-15T12:45:54.353Z,10.6
2023-03-15T12:46:54.298Z,10.4
2023-03-15T12:47:54.338Z,10.2
2023-03-15T12:48:54.321Z,10.1
2023-03-15T12:49:54.302Z,10
2023-03-15T12:50:54.301Z,9.8
2023-03-15T12:51:54.300Z,9.7
2023-03-15T12:52:54.312Z,9.5
2023-03-15T12:53:54.300Z,9.4
2023-03-15T12:54:54.305Z,9.4
2023-03-15T12:56:06.150Z,10.4
2023-03-15T12:56:54.314Z,11
2023-03-15T12:57:54.353Z,11
2023-03-15T12:58:54.310Z,10.4
2023-03-15T12:59:54.326Z,10.4
2023-03-15T13:01:54.301Z,10.1
2023-03-15T13:02:54.340Z,9.9
2023-03-15T13:03:54.307Z,9.6
2023-03-15T13:04:54.300Z,9.5
2023-03-15T13:06:03.298Z,9.3
2023-03-15T13:06:54.314Z,9.1
2023-03-15T13:07:54.320Z,9.1
2023-03-15T13:08:54.335Z,9.1
2023-03-15T13:09:54.313Z,9
2023-03-15T13:10:54.325Z,9
2023-03-15T13:11:54.380Z,9
2023-03-15T13:13:54.331Z,8.8
2023-03-15T13:14:54.323Z,8.9
2023-03-15T13:16:54.308Z,8.8
2023-03-15T13:17:54.324Z,8.9
2023-03-15T13:18:54.374Z,9
2023-03-15T13:19:54.314Z,9
2023-03-15T13:20:54.314Z,9
2023-03-15T13:21:54.320Z,8.9
2023-03-15T13:22:55.961Z,8.9
2023-03-15T13:23:54.313Z,8.9
2023-03-15T13:24:54.313Z,8.9
2023-03-15T13:25:54.352Z,8.9
2023-03-15T13:26:54.334Z,8.9
2023-03-15T13:27:54.326Z,8.9
2023-03-15T13:28:54.337Z,8.8
2023-03-15T13:30:54.348Z,8.8
2023-03-15T13:31:54.327Z,8.9
2023-03-15T13:32:54.459Z,8.9
2023-03-15T13:34:54.330Z,8.9
2023-03-15T13:35:54.380Z,8.9
2023-03-15T13:36:54.316Z,8.9
2023-03-15T13:37:54.315Z,9
2023-03-15T13:38:54.329Z,9
2023-03-15T13:39:54.444Z,9
2023-03-15T13:40:54.341Z,9
2023-03-15T13:41:54.322Z,9.1
2023-03-15T13:42:56.216Z,9.1
2023-03-15T13:43:54.322Z,9.1
2023-03-15T13:44:54.324Z,9.1
2023-03-15T13:45:54.368Z,9.1
2023-03-15T13:46:54.494Z,9.1
2023-03-15T13:47:54.342Z,9.2
2023-03-15T13:48:54.322Z,9.2
2023-03-15T13:49:54.322Z,9.2
2023-03-15T13:50:54.325Z,9.3
2023-03-15T13:51:54.328Z,9.3
2023-03-15T13:52:54.332Z,9.2
2023-03-15T13:53:54.336Z,9.2
2023-03-15T13:55:54.344Z,9.2
2023-03-15T13:56:54.328Z,9.2
2023-03-15T13:57:54.320Z,9.3
2023-03-15T13:58:54.329Z,9.3
2023-03-15T13:59:54.335Z,9.3
2023-03-15T14:00:54.336Z,9.3
2023-03-15T14:01:54.474Z,9.4
2023-03-15T14:02:54.416Z,9.4
2023-03-15T14:03:54.323Z,9.4
2023-03-15T14:04:54.330Z,9.4
2023-03-15T14:05:54.332Z,9.5
2023-03-15T14:06:54.328Z,9.5
2023-03-15T14:07:54.345Z,9.5
2023-03-15T14:08:54.320Z,9.5
2023-03-15T14:09:55.317Z,9.6
2023-03-15T14:10:54.337Z,9.5
2023-03-15T14:11:54.329Z,9.6
2023-03-15T14:12:54.337Z,9.6
2023-03-15T14:14:54.343Z,9.6
2023-03-15T14:15:54.357Z,9.6
2023-03-15T14:17:04.974Z,9.6
2023-03-15T14:17:54.347Z,9.7
2023-03-15T14:18:54.338Z,9.7
2023-03-15T14:19:54.340Z,9.7
2023-03-15T14:20:54.330Z,9.7
2023-03-15T14:21:54.337Z,9.6
2023-03-15T14:22:54.329Z,9.6
2023-03-15T14:23:54.340Z,9.6
2023-03-15T14:24:54.357Z,9.6
2023-03-15T14:25:54.338Z,9.6
2023-03-15T14:26:54.341Z,9.5
2023-03-15T14:27:54.346Z,9.5
2023-03-15T14:28:54.383Z,9.5
2023-03-15T14:29:54.335Z,9.4
2023-03-15T14:30:54.345Z,9.3
2023-03-15T14:31:54.630Z,9.3
2023-03-15T14:32:54.446Z,9.2
2023-03-15T14:33:54.353Z,9.3
2023-03-15T14:35:54.411Z,9.3
2023-03-15T14:36:54.345Z,9.3
2023-03-15T14:37:54.331Z,9.3
2023-03-15T14:38:54.349Z,9.3
2023-03-15T14:39:54.348Z,9.4
2023-03-15T14:40:54.355Z,9.2
2023-03-15T14:41:54.368Z,9.3
2023-03-15T14:42:54.357Z,9.3
2023-03-15T14:43:54.345Z,9.3
2023-03-15T14:44:54.376Z,9.3
2023-03-15T14:45:54.376Z,9.3